sensor_id;sensor_type;location;lat;lon;timestamp;pressure;altitude;pressure_sealevel;temperature;humidity
39083;BME280;24834;44.444;26.098;2023-06-14T00:04:05;100349.97;;;20.73;
39083;BME280;24834;44.444;26.098;2023-06-14T00:10:11;100352.38;;;20.78;
39083;BME280;24834;44.444;26.098;2023-06-14T00:16:15;100340.91;;;20.78;
39083;BME280;24834;44.444;26.098;2023-06-14T00:22:20;100336.47;;;20.85;
39083;BME280;24834;44.444;26.098;2023-06-14T00:28:22;100328.00;;;20.80;
39083;BME280;24834;44.444;26.098;2023-06-14T00:34:25;100327.34;;;20.67;
39083;BME280;24834;44.444;26.098;2023-06-14T00:40:30;100327.88;;;20.57;
39083;BME280;24834;44.444;26.098;2023-06-14T00:46:32;100313.84;;;20.60;
39083;BME280;24834;44.444;26.098;2023-06-14T00:52:43;100313.84;;;20.60;
39083;BME280;24834;44.444;26.098;2023-06-14T00:58:46;100310.34;;;20.56;
39083;BME280;24834;44.444;26.098;2023-06-14T01:04:50;100312.44;;;20.66;
39083;BME280;24834;44.444;26.098;2023-06-14T01:11:18;100317.66;;;20.59;
39083;BME280;24834;44.444;26.098;2023-06-14T01:17:22;100308.00;;;20.54;
39083;BME280;24834;44.444;26.098;2023-06-14T01:23:29;100306.97;;;20.59;
39083;BME280;24834;44.444;26.098;2023-06-14T01:29:35;100304.28;;;20.59;
39083;BME280;24834;44.444;26.098;2023-06-14T01:35:41;100297.00;;;20.56;
39083;BME280;24834;44.444;26.098;2023-06-14T01:41:47;100301.03;;;20.31;
39083;BME280;24834;44.444;26.098;2023-06-14T01:47:49;100288.63;;;20.23;
39083;BME280;24834;44.444;26.098;2023-06-14T01:53:55;100304.00;;;20.26;
39083;BME280;24834;44.444;26.098;2023-06-14T02:00:01;100304.94;;;20.18;
39083;BME280;24834;44.444;26.098;2023-06-14T02:06:13;100317.69;;;20.08;
39083;BME280;24834;44.444;26.098;2023-06-14T02:12:18;100312.88;;;20.14;
39083;BME280;24834;44.444;26.098;2023-06-14T02:18:21;100312.47;;;19.96;
39083;BME280;24834;44.444;26.098;2023-06-14T02:24:23;100327.09;;;20.02;
39083;BME280;24834;44.444;26.098;2023-06-14T02:30:27;100321.47;;;19.88;
39083;BME280;24834;44.444;26.098;2023-06-14T02:36:30;100329.63;;;19.95;
39083;BME280;24834;44.444;26.098;2023-06-14T02:42:34;100337.44;;;20.04;
39083;BME280;24834;44.444;26.098;2023-06-14T02:48:38;100341.06;;;19.96;
39083;BME280;24834;44.444;26.098;2023-06-14T02:54:43;100343.19;;;19.90;
39083;BME280;24834;44.444;26.098;2023-06-14T03:00:47;100351.50;;;20.01;
39083;BME280;24834;44.444;26.098;2023-06-14T03:06:50;100358.06;;;20.23;
39083;BME280;24834;44.444;26.098;2023-06-14T03:12:55;100363.47;;;20.42;
39083;BME280;24834;44.444;26.098;2023-06-14T03:19:01;100373.59;;;20.52;
39083;BME280;24834;44.444;26.098;2023-06-14T03:25:06;100374.03;;;20.54;
39083;BME280;24834;44.444;26.098;2023-06-14T03:31:13;100372.94;;;20.74;
39083;BME280;24834;44.444;26.098;2023-06-14T03:37:18;100376.88;;;20.80;
39083;BME280;24834;44.444;26.098;2023-06-14T03:43:21;100376.50;;;21.01;
39083;BME280;24834;44.444;26.098;2023-06-14T03:49:28;100369.41;;;21.08;
39083;BME280;24834;44.444;26.098;2023-06-14T03:55:30;100369.66;;;21.22;
39083;BME280;24834;44.444;26.098;2023-06-14T04:08:00;100376.38;;;21.35;
39083;BME280;24834;44.444;26.098;2023-06-14T04:25:31;100388.13;;;21.73;
39083;BME280;24834;44.444;26.098;2023-06-14T04:31:36;100397.94;;;21.88;
39083;BME280;24834;44.444;26.098;2023-06-14T04:37:45;100412.28;;;21.76;
39083;BME280;24834;44.444;26.098;2023-06-14T04:43:51;100412.63;;;21.75;
39083;BME280;24834;44.444;26.098;2023-06-14T04:49:57;100425.09;;;21.90;
39083;BME280;24834;44.444;26.098;2023-06-14T04:56:00;100425.34;;;22.30;
39083;BME280;24834;44.444;26.098;2023-06-14T05:02:06;100427.19;;;22.52;
39083;BME280;24834;44.444;26.098;2023-06-14T05:08:10;100434.22;;;22.64;
39083;BME280;24834;44.444;26.098;2023-06-14T05:14:12;100441.41;;;22.56;
39083;BME280;24834;44.444;26.098;2023-06-14T05:20:18;100447.38;;;22.72;
39083;BME280;24834;44.444;26.098;2023-06-14T05:26:21;100454.06;;;22.59;
39083;BME280;24834;44.444;26.098;2023-06-14T05:32:30;100461.69;;;22.84;
39083;BME280;24834;44.444;26.098;2023-06-14T05:38:34;100459.53;;;22.66;
39083;BME280;24834;44.444;26.098;2023-06-14T05:44:36;100469.63;;;22.76;
39083;BME280;24834;44.444;26.098;2023-06-14T05:50:40;100465.38;;;23.05;
39083;BME280;24834;44.444;26.098;2023-06-14T05:56:43;100454.03;;;23.19;
39083;BME280;24834;44.444;26.098;2023-06-14T06:02:47;100459.75;;;23.54;
39083;BME280;24834;44.444;26.098;2023-06-14T06:08:52;100453.16;;;23.88;
39083;BME280;24834;44.444;26.098;2023-06-14T06:14:56;100466.16;;;24.41;
39083;BME280;24834;44.444;26.098;2023-06-14T06:20:59;100473.34;;;24.94;
39083;BME280;24834;44.444;26.098;2023-06-14T06:27:09;100473.06;;;25.59;
39083;BME280;24834;44.444;26.098;2023-06-14T06:33:15;100466.16;;;25.58;
39083;BME280;24834;44.444;26.098;2023-06-14T06:39:19;100469.16;;;26.24;
39083;BME280;24834;44.444;26.098;2023-06-14T06:45:22;100479.53;;;26.25;
39083;BME280;24834;44.444;26.098;2023-06-14T06:51:26;100458.38;;;26.20;
39083;BME280;24834;44.444;26.098;2023-06-14T06:57:30;100469.81;;;26.60;
39083;BME280;24834;44.444;26.098;2023-06-14T07:03:33;100463.75;;;26.31;
39083;BME280;24834;44.444;26.098;2023-06-14T07:09:35;100460.94;;;26.52;
39083;BME280;24834;44.444;26.098;2023-06-14T07:15:39;100469.81;;;26.60;
39083;BME280;24834;44.444;26.098;2023-06-14T07:21:42;100471.16;;;26.92;
39083;BME280;24834;44.444;26.098;2023-06-14T07:27:45;100464.16;;;27.02;
39083;BME280;24834;44.444;26.098;2023-06-14T07:33:50;100464.91;;;27.06;
39083;BME280;24834;44.444;26.098;2023-06-14T07:39:56;100464.31;;;26.77;
39083;BME280;24834;44.444;26.098;2023-06-14T07:45:58;100449.16;;;26.97;
39083;BME280;24834;44.444;26.098;2023-06-14T07:52:10;100462.47;;;27.25;
39083;BME280;24834;44.444;26.098;2023-06-14T07:58:13;100464.03;;;27.67;
39083;BME280;24834;44.444;26.098;2023-06-14T08:04:17;100446.78;;;27.95;
39083;BME280;24834;44.444;26.098;2023-06-14T08:10:22;100464.97;;;27.94;
39083;BME280;24834;44.444;26.098;2023-06-14T08:16:26;100464.72;;;28.15;
39083;BME280;24834;44.444;26.098;2023-06-14T08:22:31;100453.66;;;28.37;
39083;BME280;24834;44.444;26.098;2023-06-14T08:28:37;100453.28;;;28.01;
39083;BME280;24834;44.444;26.098;2023-06-14T08:34:40;100454.66;;;28.16;
39083;BME280;24834;44.444;26.098;2023-06-14T08:41:05;100442.69;;;28.47;
39083;BME280;24834;44.444;26.098;2023-06-14T08:47:10;100440.13;;;28.37;
39083;BME280;24834;44.444;26.098;2023-06-14T08:53:14;100437.38;;;28.67;
39083;BME280;24834;44.444;26.098;2023-06-14T08:59:23;100433.66;;;29.11;
39083;BME280;24834;44.444;26.098;2023-06-14T09:05:26;100436.34;;;29.76;
39083;BME280;24834;44.444;26.098;2023-06-14T09:11:30;100436.97;;;29.84;
39083;BME280;24834;44.444;26.098;2023-06-14T09:17:35;100443.34;;;29.54;
39083;BME280;24834;44.444;26.098;2023-06-14T09:23:41;100444.91;;;29.05;
39083;BME280;24834;44.444;26.098;2023-06-14T09:29:44;100429.94;;;29.47;
39083;BME280;24834;44.444;26.098;2023-06-14T09:35:54;100429.38;;;29.95;
39083;BME280;24834;44.444;26.098;2023-06-14T09:41:57;100430.47;;;30.17;
39083;BME280;24834;44.444;26.098;2023-06-14T09:48:00;100425.94;;;30.30;
39083;BME280;24834;44.444;26.098;2023-06-14T09:54:15;100418.00;;;30.71;
39083;BME280;24834;44.444;26.098;2023-06-14T10:00:21;100412.50;;;30.91;
39083;BME280;24834;44.444;26.098;2023-06-14T10:06:27;100411.25;;;30.28;
39083;BME280;24834;44.444;26.098;2023-06-14T10:12:34;100413.28;;;29.88;
39083;BME280;24834;44.444;26.098;2023-06-14T10:18:51;100406.69;;;30.41;
39083;BME280;24834;44.444;26.098;2023-06-14T10:24:56;100399.13;;;29.57;
39083;BME280;24834;44.444;26.098;2023-06-14T10:31:10;100390.78;;;30.07;
39083;BME280;24834;44.444;26.098;2023-06-14T10:37:16;100395.66;;;30.32;
39083;BME280;24834;44.444;26.098;2023-06-14T10:43:22;100399.78;;;29.65;
39083;BME280;24834;44.444;26.098;2023-06-14T10:49:43;100405.59;;;29.21;
39083;BME280;24834;44.444;26.098;2023-06-14T10:55:48;100396.03;;;29.16;
39083;BME280;24834;44.444;26.098;2023-06-14T11:02:03;100406.25;;;29.71;
39083;BME280;24834;44.444;26.098;2023-06-14T11:14:30;100386.91;;;29.88;
39083;BME280;24834;44.444;26.098;2023-06-14T11:20:36;100396.03;;;29.36;
39083;BME280;24834;44.444;26.098;2023-06-14T11:26:40;100389.28;;;29.47;
39083;BME280;24834;44.444;26.098;2023-06-14T11:32:46;100380.47;;;29.63;
39083;BME280;24834;44.444;26.098;2023-06-14T11:38:49;100381.38;;;29.92;
39083;BME280;24834;44.444;26.098;2023-06-14T11:44:51;100382.78;;;29.61;
39083;BME280;24834;44.444;26.098;2023-06-14T11:51:05;100369.50;;;29.86;
39083;BME280;24834;44.444;26.098;2023-06-14T11:57:07;100365.97;;;29.89;
39083;BME280;24834;44.444;26.098;2023-06-14T12:03:12;100361.84;;;30.36;
39083;BME280;24834;44.444;26.098;2023-06-14T12:09:14;100362.09;;;30.58;
39083;BME280;24834;44.444;26.098;2023-06-14T12:15:20;100357.19;;;30.53;
39083;BME280;24834;44.444;26.098;2023-06-14T12:21:23;100361.22;;;30.29;
39083;BME280;24834;44.444;26.098;2023-06-14T12:27:25;100351.84;;;30.49;
39083;BME280;24834;44.444;26.098;2023-06-14T12:33:31;100345.63;;;30.33;
39083;BME280;24834;44.444;26.098;2023-06-14T12:39:33;100344.97;;;29.93;
39083;BME280;24834;44.444;26.098;2023-06-14T12:45:36;100342.66;;;30.27;
39083;BME280;24834;44.444;26.098;2023-06-14T12:51:39;100332.56;;;30.60;
39083;BME280;24834;44.444;26.098;2023-06-14T12:57:42;100329.22;;;30.56;
39083;BME280;24834;44.444;26.098;2023-06-14T13:03:46;100323.25;;;30.45;
39083;BME280;24834;44.444;26.098;2023-06-14T13:09:50;100308.84;;;30.48;
39083;BME280;24834;44.444;26.098;2023-06-14T13:15:53;100314.44;;;30.73;
39083;BME280;24834;44.444;26.098;2023-06-14T13:21:56;100301.19;;;30.87;
39083;BME280;24834;44.444;26.098;2023-06-14T13:28:00;100300.59;;;30.96;
39083;BME280;24834;44.444;26.098;2023-06-14T13:34:06;100301.09;;;31.86;
39083;BME280;24834;44.444;26.098;2023-06-14T13:40:10;100289.53;;;31.32;
39083;BME280;24834;44.444;26.098;2023-06-14T13:46:12;100294.06;;;30.93;
39083;BME280;24834;44.444;26.098;2023-06-14T13:52:15;100286.31;;;30.63;
39083;BME280;24834;44.444;26.098;2023-06-14T13:58:19;100291.03;;;30.31;
39083;BME280;24834;44.444;26.098;2023-06-14T14:04:22;100286.88;;;30.26;
39083;BME280;24834;44.444;26.098;2023-06-14T14:10:25;100281.56;;;30.03;
39083;BME280;24834;44.444;26.098;2023-06-14T14:16:29;100280.19;;;29.79;
39083;BME280;24834;44.444;26.098;2023-06-14T14:22:32;100282.44;;;30.00;
39083;BME280;24834;44.444;26.098;2023-06-14T14:28:36;100270.72;;;29.87;
39083;BME280;24834;44.444;26.098;2023-06-14T14:34:42;100269.56;;;30.36;
39083;BME280;24834;44.444;26.098;2023-06-14T14:40:45;100265.66;;;30.05;
39083;BME280;24834;44.444;26.098;2023-06-14T14:46:47;100262.06;;;29.92;
39083;BME280;24834;44.444;26.098;2023-06-14T14:52:51;100255.69;;;30.02;
39083;BME280;24834;44.444;26.098;2023-06-14T14:58:53;100256.03;;;29.84;
39083;BME280;24834;44.444;26.098;2023-06-14T15:04:58;100259.66;;;29.62;
39083;BME280;24834;44.444;26.098;2023-06-14T15:11:02;100268.22;;;29.21;
39083;BME280;24834;44.444;26.098;2023-06-14T15:17:06;100270.25;;;28.94;
39083;BME280;24834;44.444;26.098;2023-06-14T15:23:09;100255.06;;;28.80;
39083;BME280;24834;44.444;26.098;2023-06-14T15:29:13;100260.94;;;28.75;
39083;BME280;24834;44.444;26.098;2023-06-14T15:35:17;100262.69;;;28.85;
39083;BME280;24834;44.444;26.098;2023-06-14T15:41:23;100257.09;;;28.96;
39083;BME280;24834;44.444;26.098;2023-06-14T15:47:25;100258.84;;;29.26;
39083;BME280;24834;44.444;26.098;2023-06-14T15:53:29;100263.00;;;29.50;
39083;BME280;24834;44.444;26.098;2023-06-14T15:59:31;100268.22;;;29.41;
39083;BME280;24834;44.444;26.098;2023-06-14T16:05:36;100268.16;;;29.25;
39083;BME280;24834;44.444;26.098;2023-06-14T16:11:40;100265.69;;;28.91;
39083;BME280;24834;44.444;26.098;2023-06-14T16:17:43;100275.53;;;28.81;
39083;BME280;24834;44.444;26.098;2023-06-14T16:23:49;100272.81;;;28.81;
39083;BME280;24834;44.444;26.098;2023-06-14T16:29:53;100278.69;;;28.76;
39083;BME280;24834;44.444;26.098;2023-06-14T16:35:55;100274.25;;;28.66;
39083;BME280;24834;44.444;26.098;2023-06-14T16:41:57;100282.81;;;28.38;
39083;BME280;24834;44.444;26.098;2023-06-14T16:48:00;100284.47;;;28.29;
39083;BME280;24834;44.444;26.098;2023-06-14T16:54:02;100289.13;;;28.28;
39083;BME280;24834;44.444;26.098;2023-06-14T17:00:08;100301.81;;;28.08;
39083;BME280;24834;44.444;26.098;2023-06-14T17:06:17;100295.66;;;28.04;
39083;BME280;24834;44.444;26.098;2023-06-14T17:12:21;100300.81;;;27.95;
39083;BME280;24834;44.444;26.098;2023-06-14T17:18:26;100305.66;;;27.77;
39083;BME280;24834;44.444;26.098;2023-06-14T17:24:30;100313.78;;;27.77;
39083;BME280;24834;44.444;26.098;2023-06-14T17:30:38;100317.97;;;27.81;
39083;BME280;24834;44.444;26.098;2023-06-14T17:36:40;100323.00;;;27.79;
39083;BME280;24834;44.444;26.098;2023-06-14T17:42:43;100327.09;;;27.61;
39083;BME280;24834;44.444;26.098;2023-06-14T17:48:47;100328.34;;;27.49;
39083;BME280;24834;44.444;26.098;2023-06-14T17:54:52;100341.22;;;27.42;
39083;BME280;24834;44.444;26.098;2023-06-14T18:00:56;100343.69;;;27.18;
39083;BME280;24834;44.444;26.098;2023-06-14T18:06:58;100348.38;;;27.14;
39083;BME280;24834;44.444;26.098;2023-06-14T18:13:04;100348.03;;;27.05;
39083;BME280;24834;44.444;26.098;2023-06-14T18:19:09;100355.00;;;27.06;
39083;BME280;24834;44.444;26.098;2023-06-14T18:25:15;100361.53;;;27.05;
39083;BME280;24834;44.444;26.098;2023-06-14T18:31:18;100369.31;;;27.03;
39083;BME280;24834;44.444;26.098;2023-06-14T18:37:21;100381.66;;;27.04;
39083;BME280;24834;44.444;26.098;2023-06-14T18:43:24;100378.97;;;27.01;
39083;BME280;24834;44.444;26.098;2023-06-14T18:49:28;100388.34;;;26.86;
39083;BME280;24834;44.444;26.098;2023-06-14T18:55:31;100385.69;;;26.79;
39083;BME280;24834;44.444;26.098;2023-06-14T19:01:33;100392.59;;;26.76;
39083;BME280;24834;44.444;26.098;2023-06-14T19:07:35;100384.19;;;26.67;
39083;BME280;24834;44.444;26.098;2023-06-14T19:13:38;100409.69;;;26.52;
39083;BME280;24834;44.444;26.098;2023-06-14T19:19:46;100419.81;;;26.27;
39083;BME280;24834;44.444;26.098;2023-06-14T19:25:48;100429.50;;;26.14;
39083;BME280;24834;44.444;26.098;2023-06-14T19:31:52;100443.78;;;26.00;
39083;BME280;24834;44.444;26.098;2023-06-14T19:37:55;100436.50;;;25.90;
39083;BME280;24834;44.444;26.098;2023-06-14T19:43:59;100443.00;;;25.86;
39083;BME280;24834;44.444;26.098;2023-06-14T19:50:02;100436.91;;;25.82;
39083;BME280;24834;44.444;26.098;2023-06-14T19:56:04;100438.81;;;25.74;
39083;BME280;24834;44.444;26.098;2023-06-14T20:02:09;100437.28;;;25.77;
39083;BME280;24834;44.444;26.098;2023-06-14T20:08:13;100435.34;;;25.81;
39083;BME280;24834;44.444;26.098;2023-06-14T20:14:22;100433.78;;;25.87;
39083;BME280;24834;44.444;26.098;2023-06-14T20:20:25;100430.72;;;25.88;
39083;BME280;24834;44.444;26.098;2023-06-14T20:26:28;100428.06;;;25.78;
39083;BME280;24834;44.444;26.098;2023-06-14T20:32:31;100432.28;;;25.71;
39083;BME280;24834;44.444;26.098;2023-06-14T20:38:36;100426.91;;;25.71;
39083;BME280;24834;44.444;26.098;2023-06-14T20:44:38;100423.41;;;25.60;
39083;BME280;24834;44.444;26.098;2023-06-14T20:50:43;100437.66;;;25.54;
39083;BME280;24834;44.444;26.098;2023-06-14T20:56:49;100434.22;;;25.46;
39083;BME280;24834;44.444;26.098;2023-06-14T21:02:51;100437.28;;;25.27;
39083;BME280;24834;44.444;26.098;2023-06-14T21:08:55;100437.63;;;25.19;
39083;BME280;24834;44.444;26.098;2023-06-14T21:15:00;100443.78;;;25.26;
39083;BME280;24834;44.444;26.098;2023-06-14T21:21:03;100444.22;;;25.28;
39083;BME280;24834;44.444;26.098;2023-06-14T21:27:06;100442.25;;;25.32;
39083;BME280;24834;44.444;26.098;2023-06-14T21:33:09;100446.88;;;25.21;
39083;BME280;24834;44.444;26.098;2023-06-14T21:39:14;100443.78;;;25.26;
39083;BME280;24834;44.444;26.098;2023-06-14T21:45:24;100439.97;;;25.27;
39083;BME280;24834;44.444;26.098;2023-06-14T21:51:27;100439.94;;;25.31;
39083;BME280;24834;44.444;26.098;2023-06-14T21:57:31;100434.16;;;25.36;
39083;BME280;24834;44.444;26.098;2023-06-14T22:03:38;100424.56;;;25.21;
39083;BME280;24834;44.444;26.098;2023-06-14T22:09:42;100422.22;;;25.12;
39083;BME280;24834;44.444;26.098;2023-06-14T22:15:46;100421.81;;;24.99;
39083;BME280;24834;44.444;26.098;2023-06-14T22:21:48;100423.38;;;25.01;
39083;BME280;24834;44.444;26.098;2023-06-14T22:27:54;100422.25;;;24.98;
39083;BME280;24834;44.444;26.098;2023-06-14T22:33:58;100414.91;;;24.84;
39083;BME280;24834;44.444;26.098;2023-06-14T22:40:09;100421.38;;;24.73;
39083;BME280;24834;44.444;26.098;2023-06-14T22:46:13;100422.41;;;24.51;
39083;BME280;24834;44.444;26.098;2023-06-14T22:52:22;100428.94;;;24.46;
39083;BME280;24834;44.444;26.098;2023-06-14T22:58:34;100431.59;;;24.36;
39083;BME280;24834;44.444;26.098;2023-06-14T23:04:45;100432.72;;;24.35;
39083;BME280;24834;44.444;26.098;2023-06-14T23:10:49;100423.81;;;24.20;
39083;BME280;24834;44.444;26.098;2023-06-14T23:16:54;100420.38;;;24.19;
39083;BME280;24834;44.444;26.098;2023-06-14T23:22:57;100408.09;;;24.18;
39083;BME280;24834;44.444;26.098;2023-06-14T23:29:00;100420.38;;;24.23;
39083;BME280;24834;44.444;26.098;2023-06-14T23:35:05;100408.81;;;24.15;
39083;BME280;24834;44.444;26.098;2023-06-14T23:41:12;100407.09;;;23.86;
39083;BME280;24834;44.444;26.098;2023-06-14T23:47:20;100395.19;;;23.87;
39083;BME280;24834;44.444;26.098;2023-06-14T23:53:24;100398.59;;;23.77;
39083;BME280;24834;44.444;26.098;2023-06-14T23:59:30;100393.66;;;23.83;
